sensor_id;sensor_type;location;lat;lon;timestamp;P1;durP1;ratioP1;P2;durP2;ratioP2
16612;SDS011;8419;52.358;9.752;2023-11-19T00:01:16;0.82;;;0.82;;
16612;SDS011;8419;52.358;9.752;2023-11-19T00:04:02;1.12;;;1.00;;
16612;SDS011;8419;52.358;9.752;2023-11-19T00:06:49;0.70;;;0.70;;
16612;SDS011;8419;52.358;9.752;2023-11-19T00:09:35;0.75;;;0.75;;
16612;SDS011;8419;52.358;9.752;2023-11-19T00:12:21;1.20;;;0.90;;
16612;SDS011;8419;52.358;9.752;2023-11-19T00:15:08;1.95;;;0.90;;
16612;SDS011;8419;52.358;9.752;2023-11-19T00:17:55;1.00;;;0.80;;
16612;SDS011;8419;52.358;9.752;2023-11-19T00:20:41;0.68;;;0.68;;
16612;SDS011;8419;52.358;9.752;2023-11-19T00:23:30;0.82;;;0.70;;
16612;SDS011;8419;52.358;9.752;2023-11-19T00:26:15;2.35;;;0.80;;
16612;SDS011;8419;52.358;9.752;2023-11-19T00:29:01;0.60;;;0.60;;
16612;SDS011;8419;52.358;9.752;2023-11-19T00:31:46;0.70;;;0.68;;
16612;SDS011;8419;52.358;9.752;2023-11-19T00:34:32;0.80;;;0.80;;
16612;SDS011;8419;52.358;9.752;2023-11-19T00:37:18;0.80;;;0.80;;
16612;SDS011;8419;52.358;9.752;2023-11-19T00:40:04;0.75;;;0.75;;
16612;SDS011;8419;52.358;9.752;2023-11-19T00:42:52;0.70;;;0.70;;
16612;SDS011;8419;52.358;9.752;2023-11-19T00:45:38;1.00;;;0.88;;
16612;SDS011;8419;52.358;9.752;2023-11-19T00:48:23;0.90;;;0.70;;
16612;SDS011;8419;52.358;9.752;2023-11-19T00:51:11;0.60;;;0.60;;
16612;SDS011;8419;52.358;9.752;2023-11-19T00:53:56;1.10;;;1.00;;
16612;SDS011;8419;52.358;9.752;2023-11-19T00:56:43;2.80;;;0.80;;
16612;SDS011;8419;52.358;9.752;2023-11-19T00:59:29;1.90;;;0.90;;
16612;SDS011;8419;52.358;9.752;2023-11-19T01:02:14;0.60;;;0.60;;
16612;SDS011;8419;52.358;9.752;2023-11-19T01:05:03;2.05;;;0.70;;
16612;SDS011;8419;52.358;9.752;2023-11-19T01:07:50;1.27;;;0.85;;
16612;SDS011;8419;52.358;9.752;2023-11-19T01:10:37;1.00;;;0.82;;
16612;SDS011;8419;52.358;9.752;2023-11-19T01:13:23;0.70;;;0.60;;
16612;SDS011;8419;52.358;9.752;2023-11-19T01:16:08;1.00;;;0.75;;
16612;SDS011;8419;52.358;9.752;2023-11-19T01:18:54;0.70;;;0.65;;
16612;SDS011;8419;52.358;9.752;2023-11-19T01:21:40;1.27;;;0.75;;
16612;SDS011;8419;52.358;9.752;2023-11-19T01:24:25;0.62;;;0.62;;
16612;SDS011;8419;52.358;9.752;2023-11-19T01:27:13;0.62;;;0.62;;
16612;SDS011;8419;52.358;9.752;2023-11-19T01:29:58;0.62;;;0.55;;
16612;SDS011;8419;52.358;9.752;2023-11-19T01:32:46;0.60;;;0.60;;
16612;SDS011;8419;52.358;9.752;2023-11-19T01:35:31;0.55;;;0.40;;
16612;SDS011;8419;52.358;9.752;2023-11-19T01:38:17;0.60;;;0.60;;
16612;SDS011;8419;52.358;9.752;2023-11-19T01:41:03;0.75;;;0.70;;
16612;SDS011;8419;52.358;9.752;2023-11-19T01:43:48;0.70;;;0.60;;
16612;SDS011;8419;52.358;9.752;2023-11-19T01:46:34;0.50;;;0.50;;
16612;SDS011;8419;52.358;9.752;2023-11-19T01:49:21;0.57;;;0.57;;
16612;SDS011;8419;52.358;9.752;2023-11-19T01:52:07;0.88;;;0.50;;
16612;SDS011;8419;52.358;9.752;2023-11-19T01:54:53;0.60;;;0.60;;
16612;SDS011;8419;52.358;9.752;2023-11-19T01:57:39;0.50;;;0.50;;
16612;SDS011;8419;52.358;9.752;2023-11-19T02:00:25;0.60;;;0.60;;
16612;SDS011;8419;52.358;9.752;2023-11-19T02:03:11;0.93;;;0.60;;
16612;SDS011;8419;52.358;9.752;2023-11-19T02:05:59;0.75;;;0.68;;
16612;SDS011;8419;52.358;9.752;2023-11-19T02:08:46;0.70;;;0.43;;
16612;SDS011;8419;52.358;9.752;2023-11-19T02:11:32;0.80;;;0.50;;
16612;SDS011;8419;52.358;9.752;2023-11-19T02:14:18;0.60;;;0.60;;
16612;SDS011;8419;52.358;9.752;2023-11-19T02:17:06;0.40;;;0.40;;
16612;SDS011;8419;52.358;9.752;2023-11-19T02:20:09;0.45;;;0.40;;
16612;SDS011;8419;52.358;9.752;2023-11-19T02:22:57;0.75;;;0.60;;
16612;SDS011;8419;52.358;9.752;2023-11-19T02:25:47;0.30;;;0.30;;
16612;SDS011;8419;52.358;9.752;2023-11-19T02:28:40;0.30;;;0.30;;
16612;SDS011;8419;52.358;9.752;2023-11-19T02:31:27;0.30;;;0.30;;
16612;SDS011;8419;52.358;9.752;2023-11-19T02:34:12;0.52;;;0.40;;
16612;SDS011;8419;52.358;9.752;2023-11-19T02:36:58;0.47;;;0.47;;
16612;SDS011;8419;52.358;9.752;2023-11-19T02:39:44;0.40;;;0.40;;
16612;SDS011;8419;52.358;9.752;2023-11-19T02:42:30;0.32;;;0.32;;
16612;SDS011;8419;52.358;9.752;2023-11-19T02:45:16;0.40;;;0.30;;
16612;SDS011;8419;52.358;9.752;2023-11-19T02:48:01;0.50;;;0.43;;
16612;SDS011;8419;52.358;9.752;2023-11-19T02:50:50;0.50;;;0.30;;
16612;SDS011;8419;52.358;9.752;2023-11-19T02:53:36;0.45;;;0.45;;
16612;SDS011;8419;52.358;9.752;2023-11-19T02:56:23;0.40;;;0.40;;
16612;SDS011;8419;52.358;9.752;2023-11-19T02:59:09;0.55;;;0.30;;
16612;SDS011;8419;52.358;9.752;2023-11-19T03:02:11;0.40;;;0.40;;
16612;SDS011;8419;52.358;9.752;2023-11-19T03:04:59;1.77;;;0.62;;
16612;SDS011;8419;52.358;9.752;2023-11-19T03:07:45;0.40;;;0.30;;
16612;SDS011;8419;52.358;9.752;2023-11-19T03:10:31;0.28;;;0.28;;
16612;SDS011;8419;52.358;9.752;2023-11-19T03:13:16;0.37;;;0.37;;
16612;SDS011;8419;52.358;9.752;2023-11-19T03:16:02;0.30;;;0.30;;
16612;SDS011;8419;52.358;9.752;2023-11-19T03:18:49;0.43;;;0.40;;
16612;SDS011;8419;52.358;9.752;2023-11-19T03:21:34;0.32;;;0.30;;
16612;SDS011;8419;52.358;9.752;2023-11-19T03:24:21;0.37;;;0.37;;
16612;SDS011;8419;52.358;9.752;2023-11-19T03:27:09;0.50;;;0.50;;
16612;SDS011;8419;52.358;9.752;2023-11-19T03:29:55;0.43;;;0.37;;
16612;SDS011;8419;52.358;9.752;2023-11-19T03:32:40;0.65;;;0.50;;
16612;SDS011;8419;52.358;9.752;2023-11-19T03:35:26;0.40;;;0.40;;
16612;SDS011;8419;52.358;9.752;2023-11-19T03:38:12;0.30;;;0.30;;
16612;SDS011;8419;52.358;9.752;2023-11-19T03:40:58;1.67;;;0.40;;
16612;SDS011;8419;52.358;9.752;2023-11-19T03:43:45;0.82;;;0.50;;
16612;SDS011;8419;52.358;9.752;2023-11-19T03:46:31;0.90;;;0.47;;
16612;SDS011;8419;52.358;9.752;2023-11-19T03:49:17;0.43;;;0.43;;
16612;SDS011;8419;52.358;9.752;2023-11-19T03:52:03;0.45;;;0.45;;
16612;SDS011;8419;52.358;9.752;2023-11-19T03:54:50;0.40;;;0.40;;
16612;SDS011;8419;52.358;9.752;2023-11-19T03:57:36;0.50;;;0.50;;
16612;SDS011;8419;52.358;9.752;2023-11-19T04:00:21;0.47;;;0.47;;
16612;SDS011;8419;52.358;9.752;2023-11-19T04:03:07;0.70;;;0.62;;
16612;SDS011;8419;52.358;9.752;2023-11-19T04:05:53;0.73;;;0.70;;
16612;SDS011;8419;52.358;9.752;2023-11-19T04:08:38;0.60;;;0.60;;
16612;SDS011;8419;52.358;9.752;2023-11-19T04:11:24;0.70;;;0.62;;
16612;SDS011;8419;52.358;9.752;2023-11-19T04:14:10;0.95;;;0.73;;
16612;SDS011;8419;52.358;9.752;2023-11-19T04:16:55;1.05;;;0.70;;
16612;SDS011;8419;52.358;9.752;2023-11-19T04:19:41;0.60;;;0.60;;
16612;SDS011;8419;52.358;9.752;2023-11-19T04:22:27;1.05;;;0.93;;
16612;SDS011;8419;52.358;9.752;2023-11-19T04:25:13;1.17;;;1.00;;
16612;SDS011;8419;52.358;9.752;2023-11-19T04:28:00;1.58;;;0.88;;
16612;SDS011;8419;52.358;9.752;2023-11-19T04:30:46;1.30;;;1.20;;
16612;SDS011;8419;52.358;9.752;2023-11-19T04:33:32;1.65;;;1.00;;
16612;SDS011;8419;52.358;9.752;2023-11-19T04:36:18;1.73;;;1.15;;
16612;SDS011;8419;52.358;9.752;2023-11-19T04:39:05;1.23;;;1.12;;
16612;SDS011;8419;52.358;9.752;2023-11-19T04:41:53;1.50;;;1.17;;
16612;SDS011;8419;52.358;9.752;2023-11-19T04:44:39;3.22;;;1.60;;
16612;SDS011;8419;52.358;9.752;2023-11-19T04:47:27;2.40;;;1.40;;
16612;SDS011;8419;52.358;9.752;2023-11-19T04:50:12;1.90;;;1.55;;
16612;SDS011;8419;52.358;9.752;2023-11-19T04:52:58;1.75;;;1.50;;
16612;SDS011;8419;52.358;9.752;2023-11-19T04:55:44;1.73;;;1.50;;
16612;SDS011;8419;52.358;9.752;2023-11-19T04:58:30;2.75;;;1.70;;
16612;SDS011;8419;52.358;9.752;2023-11-19T05:01:15;3.72;;;1.90;;
16612;SDS011;8419;52.358;9.752;2023-11-19T05:04:01;2.85;;;1.90;;
16612;SDS011;8419;52.358;9.752;2023-11-19T05:06:47;2.97;;;2.25;;
16612;SDS011;8419;52.358;9.752;2023-11-19T05:09:33;2.42;;;2.10;;
16612;SDS011;8419;52.358;9.752;2023-11-19T05:12:18;3.95;;;3.00;;
16612;SDS011;8419;52.358;9.752;2023-11-19T05:15:06;3.55;;;2.70;;
16612;SDS011;8419;52.358;9.752;2023-11-19T05:17:52;4.45;;;2.53;;
16612;SDS011;8419;52.358;9.752;2023-11-19T05:20:37;3.83;;;2.85;;
16612;SDS011;8419;52.358;9.752;2023-11-19T05:23:24;4.28;;;2.80;;
16612;SDS011;8419;52.358;9.752;2023-11-19T05:26:09;3.78;;;3.08;;
16612;SDS011;8419;52.358;9.752;2023-11-19T05:29:01;3.25;;;2.65;;
16612;SDS011;8419;52.358;9.752;2023-11-19T05:31:47;4.53;;;2.80;;
16612;SDS011;8419;52.358;9.752;2023-11-19T05:34:33;4.78;;;2.53;;
16612;SDS011;8419;52.358;9.752;2023-11-19T05:37:18;3.37;;;2.85;;
16612;SDS011;8419;52.358;9.752;2023-11-19T05:40:05;4.32;;;2.90;;
16612;SDS011;8419;52.358;9.752;2023-11-19T05:42:58;3.60;;;2.90;;
16612;SDS011;8419;52.358;9.752;2023-11-19T05:45:44;7.22;;;3.05;;
16612;SDS011;8419;52.358;9.752;2023-11-19T05:48:30;3.87;;;3.33;;
16612;SDS011;8419;52.358;9.752;2023-11-19T05:51:16;4.30;;;3.90;;
16612;SDS011;8419;52.358;9.752;2023-11-19T05:54:01;7.00;;;4.35;;
16612;SDS011;8419;52.358;9.752;2023-11-19T05:56:48;11.45;;;4.32;;
16612;SDS011;8419;52.358;9.752;2023-11-19T05:59:33;5.68;;;3.95;;
16612;SDS011;8419;52.358;9.752;2023-11-19T06:02:20;8.10;;;4.95;;
16612;SDS011;8419;52.358;9.752;2023-11-19T06:05:06;5.20;;;4.10;;
16612;SDS011;8419;52.358;9.752;2023-11-19T06:07:54;8.63;;;4.90;;
16612;SDS011;8419;52.358;9.752;2023-11-19T06:10:39;6.45;;;4.43;;
16612;SDS011;8419;52.358;9.752;2023-11-19T06:13:25;10.40;;;3.95;;
16612;SDS011;8419;52.358;9.752;2023-11-19T06:16:11;1.83;;;1.52;;
16612;SDS011;8419;52.358;9.752;2023-11-19T06:18:57;8.88;;;4.57;;
16612;SDS011;8419;52.358;9.752;2023-11-19T06:21:42;7.90;;;4.18;;
16612;SDS011;8419;52.358;9.752;2023-11-19T06:24:28;6.57;;;3.78;;
16612;SDS011;8419;52.358;9.752;2023-11-19T06:27:14;9.93;;;4.22;;
16612;SDS011;8419;52.358;9.752;2023-11-19T06:29:59;10.05;;;4.47;;
16612;SDS011;8419;52.358;9.752;2023-11-19T06:32:45;5.85;;;2.75;;
16612;SDS011;8419;52.358;9.752;2023-11-19T06:35:31;4.72;;;3.15;;
16612;SDS011;8419;52.358;9.752;2023-11-19T06:38:20;3.50;;;1.75;;
16612;SDS011;8419;52.358;9.752;2023-11-19T06:41:07;8.50;;;3.67;;
16612;SDS011;8419;52.358;9.752;2023-11-19T06:43:54;4.55;;;1.90;;
16612;SDS011;8419;52.358;9.752;2023-11-19T06:46:40;7.57;;;3.12;;
16612;SDS011;8419;52.358;9.752;2023-11-19T06:49:26;7.57;;;3.35;;
16612;SDS011;8419;52.358;9.752;2023-11-19T06:52:12;7.65;;;3.20;;
16612;SDS011;8419;52.358;9.752;2023-11-19T06:54:58;9.10;;;3.90;;
16612;SDS011;8419;52.358;9.752;2023-11-19T06:57:44;10.77;;;3.30;;
16612;SDS011;8419;52.358;9.752;2023-11-19T07:00:29;8.68;;;3.30;;
16612;SDS011;8419;52.358;9.752;2023-11-19T07:03:17;3.45;;;1.90;;
16612;SDS011;8419;52.358;9.752;2023-11-19T07:06:02;7.97;;;2.33;;
16612;SDS011;8419;52.358;9.752;2023-11-19T07:08:52;10.02;;;2.85;;
16612;SDS011;8419;52.358;9.752;2023-11-19T07:11:41;7.15;;;2.20;;
16612;SDS011;8419;52.358;9.752;2023-11-19T07:14:30;12.30;;;3.37;;
16612;SDS011;8419;52.358;9.752;2023-11-19T07:17:16;9.45;;;2.92;;
16612;SDS011;8419;52.358;9.752;2023-11-19T07:20:04;7.18;;;2.75;;
16612;SDS011;8419;52.358;9.752;2023-11-19T07:22:51;8.55;;;2.95;;
16612;SDS011;8419;52.358;9.752;2023-11-19T07:25:37;11.00;;;3.03;;
16612;SDS011;8419;52.358;9.752;2023-11-19T07:28:23;9.57;;;2.80;;
16612;SDS011;8419;52.358;9.752;2023-11-19T07:31:09;8.60;;;2.50;;
16612;SDS011;8419;52.358;9.752;2023-11-19T07:33:54;12.13;;;2.22;;
16612;SDS011;8419;52.358;9.752;2023-11-19T07:36:40;11.82;;;2.55;;
16612;SDS011;8419;52.358;9.752;2023-11-19T07:39:25;7.62;;;2.20;;
16612;SDS011;8419;52.358;9.752;2023-11-19T07:42:12;6.15;;;1.73;;
16612;SDS011;8419;52.358;9.752;2023-11-19T07:45:00;14.70;;;2.67;;
16612;SDS011;8419;52.358;9.752;2023-11-19T07:47:46;6.57;;;1.42;;
16612;SDS011;8419;52.358;9.752;2023-11-19T07:50:31;8.45;;;1.42;;
16612;SDS011;8419;52.358;9.752;2023-11-19T07:53:17;3.08;;;1.58;;
16612;SDS011;8419;52.358;9.752;2023-11-19T07:56:04;6.85;;;1.55;;
16612;SDS011;8419;52.358;9.752;2023-11-19T07:58:51;6.85;;;1.90;;
16612;SDS011;8419;52.358;9.752;2023-11-19T08:01:37;5.30;;;1.75;;
16612;SDS011;8419;52.358;9.752;2023-11-19T08:04:23;9.73;;;1.98;;
16612;SDS011;8419;52.358;9.752;2023-11-19T08:07:12;10.68;;;2.25;;
16612;SDS011;8419;52.358;9.752;2023-11-19T08:10:04;6.75;;;2.53;;
16612;SDS011;8419;52.358;9.752;2023-11-19T08:12:54;8.93;;;2.30;;
16612;SDS011;8419;52.358;9.752;2023-11-19T08:15:40;7.65;;;1.75;;
16612;SDS011;8419;52.358;9.752;2023-11-19T08:18:27;3.55;;;1.00;;
16612;SDS011;8419;52.358;9.752;2023-11-19T08:21:14;2.65;;;1.17;;
16612;SDS011;8419;52.358;9.752;2023-11-19T08:24:00;5.00;;;1.60;;
16612;SDS011;8419;52.358;9.752;2023-11-19T08:26:46;12.70;;;2.80;;
16612;SDS011;8419;52.358;9.752;2023-11-19T08:29:35;15.88;;;3.75;;
16612;SDS011;8419;52.358;9.752;2023-11-19T08:32:22;6.35;;;1.20;;
16612;SDS011;8419;52.358;9.752;2023-11-19T08:35:10;3.65;;;1.58;;
16612;SDS011;8419;52.358;9.752;2023-11-19T08:38:00;10.80;;;2.55;;
16612;SDS011;8419;52.358;9.752;2023-11-19T08:40:51;8.90;;;2.05;;
16612;SDS011;8419;52.358;9.752;2023-11-19T08:43:43;4.05;;;1.12;;
16612;SDS011;8419;52.358;9.752;2023-11-19T08:46:33;13.35;;;3.08;;
16612;SDS011;8419;52.358;9.752;2023-11-19T08:49:24;16.52;;;2.90;;
16612;SDS011;8419;52.358;9.752;2023-11-19T08:52:12;11.07;;;2.80;;
16612;SDS011;8419;52.358;9.752;2023-11-19T08:55:01;3.87;;;1.45;;
16612;SDS011;8419;52.358;9.752;2023-11-19T08:57:49;10.27;;;2.72;;
16612;SDS011;8419;52.358;9.752;2023-11-19T09:00:35;9.18;;;2.87;;
16612;SDS011;8419;52.358;9.752;2023-11-19T09:03:20;15.02;;;3.60;;
16612;SDS011;8419;52.358;9.752;2023-11-19T09:06:06;17.50;;;4.10;;
16612;SDS011;8419;52.358;9.752;2023-11-19T09:08:52;18.70;;;4.15;;
16612;SDS011;8419;52.358;9.752;2023-11-19T09:11:42;5.22;;;1.35;;
16612;SDS011;8419;52.358;9.752;2023-11-19T09:14:28;9.90;;;3.05;;
16612;SDS011;8419;52.358;9.752;2023-11-19T09:17:16;16.30;;;3.33;;
16612;SDS011;8419;52.358;9.752;2023-11-19T09:20:02;11.20;;;3.20;;
16612;SDS011;8419;52.358;9.752;2023-11-19T09:22:50;13.05;;;2.58;;
16612;SDS011;8419;52.358;9.752;2023-11-19T09:25:50;7.05;;;1.92;;
16612;SDS011;8419;52.358;9.752;2023-11-19T09:28:44;15.18;;;3.03;;
16612;SDS011;8419;52.358;9.752;2023-11-19T09:31:30;10.65;;;2.72;;
16612;SDS011;8419;52.358;9.752;2023-11-19T09:34:16;13.23;;;3.80;;
16612;SDS011;8419;52.358;9.752;2023-11-19T09:37:03;14.48;;;3.10;;
16612;SDS011;8419;52.358;9.752;2023-11-19T09:39:49;12.30;;;2.92;;
16612;SDS011;8419;52.358;9.752;2023-11-19T09:42:36;10.95;;;2.67;;
16612;SDS011;8419;52.358;9.752;2023-11-19T09:45:30;8.60;;;2.00;;
16612;SDS011;8419;52.358;9.752;2023-11-19T09:48:30;6.55;;;1.60;;
16612;SDS011;8419;52.358;9.752;2023-11-19T09:51:18;8.30;;;1.37;;
16612;SDS011;8419;52.358;9.752;2023-11-19T09:54:06;14.85;;;2.72;;
16612;SDS011;8419;52.358;9.752;2023-11-19T09:56:52;11.12;;;3.05;;
16612;SDS011;8419;52.358;9.752;2023-11-19T09:59:38;10.02;;;3.10;;
16612;SDS011;8419;52.358;9.752;2023-11-19T10:02:25;10.13;;;2.78;;
16612;SDS011;8419;52.358;9.752;2023-11-19T10:05:15;14.80;;;2.90;;
16612;SDS011;8419;52.358;9.752;2023-11-19T10:08:02;21.60;;;3.83;;
16612;SDS011;8419;52.358;9.752;2023-11-19T10:10:48;11.52;;;2.50;;
16612;SDS011;8419;52.358;9.752;2023-11-19T10:13:34;3.47;;;1.20;;
16612;SDS011;8419;52.358;9.752;2023-11-19T10:16:30;12.77;;;2.50;;
16612;SDS011;8419;52.358;9.752;2023-11-19T10:19:19;10.32;;;1.60;;
16612;SDS011;8419;52.358;9.752;2023-11-19T10:22:05;7.12;;;1.10;;
16612;SDS011;8419;52.358;9.752;2023-11-19T10:24:51;5.28;;;1.33;;
16612;SDS011;8419;52.358;9.752;2023-11-19T10:27:40;13.50;;;2.67;;
16612;SDS011;8419;52.358;9.752;2023-11-19T10:30:29;7.80;;;2.12;;
16612;SDS011;8419;52.358;9.752;2023-11-19T10:33:15;7.65;;;2.22;;
16612;SDS011;8419;52.358;9.752;2023-11-19T10:36:04;8.57;;;2.15;;
16612;SDS011;8419;52.358;9.752;2023-11-19T10:38:56;9.60;;;2.28;;
16612;SDS011;8419;52.358;9.752;2023-11-19T10:41:43;15.50;;;2.75;;
16612;SDS011;8419;52.358;9.752;2023-11-19T10:44:32;9.65;;;3.53;;
16612;SDS011;8419;52.358;9.752;2023-11-19T10:47:20;12.48;;;2.12;;
16612;SDS011;8419;52.358;9.752;2023-11-19T10:50:08;11.32;;;2.33;;
16612;SDS011;8419;52.358;9.752;2023-11-19T10:52:59;7.70;;;2.47;;
16612;SDS011;8419;52.358;9.752;2023-11-19T10:55:46;9.35;;;2.35;;
16612;SDS011;8419;52.358;9.752;2023-11-19T10:58:33;12.00;;;3.28;;
16612;SDS011;8419;52.358;9.752;2023-11-19T11:01:22;7.62;;;1.85;;
16612;SDS011;8419;52.358;9.752;2023-11-19T11:04:12;9.15;;;3.05;;
16612;SDS011;8419;52.358;9.752;2023-11-19T11:06:59;8.23;;;2.72;;
16612;SDS011;8419;52.358;9.752;2023-11-19T11:09:46;15.07;;;2.85;;
16612;SDS011;8419;52.358;9.752;2023-11-19T11:12:35;9.07;;;2.08;;
16612;SDS011;8419;52.358;9.752;2023-11-19T11:15:22;12.63;;;2.67;;
16612;SDS011;8419;52.358;9.752;2023-11-19T11:18:09;4.18;;;1.58;;
16612;SDS011;8419;52.358;9.752;2023-11-19T11:20:58;15.77;;;2.80;;
16612;SDS011;8419;52.358;9.752;2023-11-19T11:24:06;10.70;;;2.62;;
16612;SDS011;8419;52.358;9.752;2023-11-19T11:27:10;10.65;;;1.92;;
16612;SDS011;8419;52.358;9.752;2023-11-19T11:30:11;9.88;;;2.20;;
16612;SDS011;8419;52.358;9.752;2023-11-19T11:33:15;10.45;;;2.70;;
16612;SDS011;8419;52.358;9.752;2023-11-19T11:36:17;13.57;;;3.15;;
16612;SDS011;8419;52.358;9.752;2023-11-19T11:39:05;14.00;;;2.67;;
16612;SDS011;8419;52.358;9.752;2023-11-19T11:45:15;11.77;;;2.83;;
16612;SDS011;8419;52.358;9.752;2023-11-19T11:48:11;10.13;;;1.75;;
16612;SDS011;8419;52.358;9.752;2023-11-19T11:51:00;6.30;;;1.65;;
16612;SDS011;8419;52.358;9.752;2023-11-19T11:53:45;6.40;;;1.10;;
16612;SDS011;8419;52.358;9.752;2023-11-19T11:56:33;8.30;;;1.50;;
16612;SDS011;8419;52.358;9.752;2023-11-19T11:59:24;12.05;;;2.97;;
16612;SDS011;8419;52.358;9.752;2023-11-19T12:02:10;4.78;;;2.03;;
16612;SDS011;8419;52.358;9.752;2023-11-19T12:04:57;16.42;;;2.85;;
16612;SDS011;8419;52.358;9.752;2023-11-19T12:07:54;15.90;;;2.87;;
16612;SDS011;8419;52.358;9.752;2023-11-19T12:10:57;11.50;;;2.37;;
16612;SDS011;8419;52.358;9.752;2023-11-19T12:13:55;12.15;;;3.65;;
16612;SDS011;8419;52.358;9.752;2023-11-19T12:16:46;11.63;;;1.67;;
16612;SDS011;8419;52.358;9.752;2023-11-19T12:19:35;15.75;;;2.95;;
16612;SDS011;8419;52.358;9.752;2023-11-19T12:22:25;13.18;;;2.85;;
16612;SDS011;8419;52.358;9.752;2023-11-19T12:25:11;18.65;;;3.40;;
16612;SDS011;8419;52.358;9.752;2023-11-19T12:27:58;21.50;;;3.60;;
16612;SDS011;8419;52.358;9.752;2023-11-19T12:30:49;5.78;;;1.73;;
16612;SDS011;8419;52.358;9.752;2023-11-19T12:33:35;10.43;;;1.83;;
16612;SDS011;8419;52.358;9.752;2023-11-19T12:36:23;6.70;;;2.00;;
16612;SDS011;8419;52.358;9.752;2023-11-19T12:39:09;8.00;;;1.80;;
16612;SDS011;8419;52.358;9.752;2023-11-19T12:41:58;14.55;;;3.40;;
16612;SDS011;8419;52.358;9.752;2023-11-19T12:44:54;3.55;;;1.08;;
16612;SDS011;8419;52.358;9.752;2023-11-19T12:47:40;13.65;;;3.55;;
16612;SDS011;8419;52.358;9.752;2023-11-19T12:50:26;10.30;;;2.62;;
16612;SDS011;8419;52.358;9.752;2023-11-19T12:53:14;8.55;;;1.87;;
16612;SDS011;8419;52.358;9.752;2023-11-19T12:56:09;14.32;;;3.22;;
16612;SDS011;8419;52.358;9.752;2023-11-19T12:59:10;4.47;;;1.75;;
16612;SDS011;8419;52.358;9.752;2023-11-19T13:01:57;11.80;;;2.80;;
16612;SDS011;8419;52.358;9.752;2023-11-19T13:04:44;9.75;;;2.65;;
16612;SDS011;8419;52.358;9.752;2023-11-19T13:07:30;12.43;;;3.28;;
16612;SDS011;8419;52.358;9.752;2023-11-19T13:10:16;5.28;;;1.75;;
16612;SDS011;8419;52.358;9.752;2023-11-19T13:13:03;11.07;;;2.85;;
16612;SDS011;8419;52.358;9.752;2023-11-19T13:15:49;12.02;;;2.47;;
16612;SDS011;8419;52.358;9.752;2023-11-19T13:18:35;13.73;;;2.90;;
16612;SDS011;8419;52.358;9.752;2023-11-19T13:21:20;9.30;;;3.05;;
16612;SDS011;8419;52.358;9.752;2023-11-19T13:24:06;6.25;;;1.87;;
16612;SDS011;8419;52.358;9.752;2023-11-19T13:26:52;11.82;;;3.20;;
16612;SDS011;8419;52.358;9.752;2023-11-19T13:29:40;8.65;;;2.62;;
16612;SDS011;8419;52.358;9.752;2023-11-19T13:32:26;15.10;;;2.67;;
16612;SDS011;8419;52.358;9.752;2023-11-19T13:35:12;13.00;;;2.08;;
16612;SDS011;8419;52.358;9.752;2023-11-19T13:37:57;10.80;;;2.87;;
16612;SDS011;8419;52.358;9.752;2023-11-19T13:40:43;7.85;;;2.08;;
16612;SDS011;8419;52.358;9.752;2023-11-19T13:43:30;8.40;;;2.50;;
16612;SDS011;8419;52.358;9.752;2023-11-19T13:46:17;13.70;;;3.17;;
16612;SDS011;8419;52.358;9.752;2023-11-19T13:49:03;15.70;;;3.75;;
16612;SDS011;8419;52.358;9.752;2023-11-19T13:51:48;15.55;;;2.50;;
16612;SDS011;8419;52.358;9.752;2023-11-19T13:54:34;13.50;;;2.67;;
16612;SDS011;8419;52.358;9.752;2023-11-19T13:57:20;18.45;;;2.87;;
16612;SDS011;8419;52.358;9.752;2023-11-19T14:00:07;6.28;;;1.70;;
16612;SDS011;8419;52.358;9.752;2023-11-19T14:02:57;14.15;;;2.58;;
16612;SDS011;8419;52.358;9.752;2023-11-19T14:05:43;7.65;;;2.28;;
16612;SDS011;8419;52.358;9.752;2023-11-19T14:08:29;3.95;;;1.27;;
16612;SDS011;8419;52.358;9.752;2023-11-19T14:11:17;7.82;;;2.08;;
16612;SDS011;8419;52.358;9.752;2023-11-19T14:14:03;10.18;;;2.90;;
16612;SDS011;8419;52.358;9.752;2023-11-19T14:16:49;10.82;;;2.97;;
16612;SDS011;8419;52.358;9.752;2023-11-19T14:19:36;8.98;;;2.12;;
16612;SDS011;8419;52.358;9.752;2023-11-19T14:22:23;13.07;;;3.12;;
16612;SDS011;8419;52.358;9.752;2023-11-19T14:25:11;8.75;;;2.80;;
16612;SDS011;8419;52.358;9.752;2023-11-19T14:27:57;9.18;;;1.95;;
16612;SDS011;8419;52.358;9.752;2023-11-19T14:30:42;14.43;;;2.60;;
16612;SDS011;8419;52.358;9.752;2023-11-19T14:33:29;11.35;;;2.80;;
16612;SDS011;8419;52.358;9.752;2023-11-19T14:36:15;8.00;;;2.22;;
16612;SDS011;8419;52.358;9.752;2023-11-19T14:39:00;13.23;;;2.97;;
16612;SDS011;8419;52.358;9.752;2023-11-19T14:41:46;14.80;;;2.97;;
16612;SDS011;8419;52.358;9.752;2023-11-19T14:44:33;8.93;;;2.50;;
16612;SDS011;8419;52.358;9.752;2023-11-19T14:47:19;15.57;;;3.28;;
16612;SDS011;8419;52.358;9.752;2023-11-19T14:50:06;7.05;;;1.80;;
16612;SDS011;8419;52.358;9.752;2023-11-19T14:52:53;6.05;;;2.22;;
16612;SDS011;8419;52.358;9.752;2023-11-19T14:55:39;14.18;;;2.92;;
16612;SDS011;8419;52.358;9.752;2023-11-19T14:58:25;8.32;;;2.47;;
16612;SDS011;8419;52.358;9.752;2023-11-19T15:01:11;13.90;;;3.00;;
16612;SDS011;8419;52.358;9.752;2023-11-19T15:03:58;12.93;;;3.35;;
16612;SDS011;8419;52.358;9.752;2023-11-19T15:06:44;15.30;;;3.55;;
16612;SDS011;8419;52.358;9.752;2023-11-19T15:09:29;16.20;;;4.50;;
16612;SDS011;8419;52.358;9.752;2023-11-19T15:12:16;15.15;;;4.28;;
16612;SDS011;8419;52.358;9.752;2023-11-19T15:15:02;11.75;;;2.30;;
16612;SDS011;8419;52.358;9.752;2023-11-19T15:17:49;11.95;;;3.10;;
16612;SDS011;8419;52.358;9.752;2023-11-19T15:20:35;11.45;;;2.95;;
16612;SDS011;8419;52.358;9.752;2023-11-19T15:23:20;9.27;;;3.08;;
16612;SDS011;8419;52.358;9.752;2023-11-19T15:26:07;14.75;;;3.87;;
16612;SDS011;8419;52.358;9.752;2023-11-19T15:28:54;25.12;;;4.25;;
16612;SDS011;8419;52.358;9.752;2023-11-19T15:31:42;20.27;;;4.00;;
16612;SDS011;8419;52.358;9.752;2023-11-19T15:34:27;15.10;;;4.32;;
16612;SDS011;8419;52.358;9.752;2023-11-19T15:37:13;17.65;;;4.20;;
16612;SDS011;8419;52.358;9.752;2023-11-19T15:39:59;4.70;;;1.92;;
16612;SDS011;8419;52.358;9.752;2023-11-19T15:42:47;12.77;;;2.45;;
16612;SDS011;8419;52.358;9.752;2023-11-19T15:45:38;16.60;;;3.75;;
16612;SDS011;8419;52.358;9.752;2023-11-19T15:48:24;10.02;;;3.33;;
16612;SDS011;8419;52.358;9.752;2023-11-19T15:51:10;12.82;;;3.42;;
16612;SDS011;8419;52.358;9.752;2023-11-19T15:53:55;12.45;;;3.22;;
16612;SDS011;8419;52.358;9.752;2023-11-19T15:56:41;14.38;;;3.40;;
16612;SDS011;8419;52.358;9.752;2023-11-19T15:59:27;16.80;;;4.10;;
16612;SDS011;8419;52.358;9.752;2023-11-19T16:02:12;15.70;;;4.30;;
16612;SDS011;8419;52.358;9.752;2023-11-19T16:04:58;8.68;;;2.70;;
16612;SDS011;8419;52.358;9.752;2023-11-19T16:07:45;11.30;;;4.28;;
16612;SDS011;8419;52.358;9.752;2023-11-19T16:10:30;18.90;;;3.40;;
16612;SDS011;8419;52.358;9.752;2023-11-19T16:13:16;18.00;;;3.60;;
16612;SDS011;8419;52.358;9.752;2023-11-19T16:16:02;16.62;;;3.97;;
16612;SDS011;8419;52.358;9.752;2023-11-19T16:18:49;16.12;;;4.65;;
16612;SDS011;8419;52.358;9.752;2023-11-19T16:21:35;12.95;;;3.35;;
16612;SDS011;8419;52.358;9.752;2023-11-19T16:24:20;13.80;;;4.10;;
16612;SDS011;8419;52.358;9.752;2023-11-19T16:27:06;8.70;;;3.50;;
16612;SDS011;8419;52.358;9.752;2023-11-19T16:29:52;13.38;;;4.22;;
16612;SDS011;8419;52.358;9.752;2023-11-19T16:32:48;9.75;;;3.47;;
16612;SDS011;8419;52.358;9.752;2023-11-19T16:35:37;10.07;;;3.42;;
16612;SDS011;8419;52.358;9.752;2023-11-19T16:38:23;12.40;;;3.92;;
16612;SDS011;8419;52.358;9.752;2023-11-19T16:41:11;19.35;;;4.53;;
16612;SDS011;8419;52.358;9.752;2023-11-19T16:43:58;7.90;;;3.30;;
16612;SDS011;8419;52.358;9.752;2023-11-19T16:46:47;7.50;;;2.20;;
16612;SDS011;8419;52.358;9.752;2023-11-19T16:49:33;18.87;;;3.97;;
16612;SDS011;8419;52.358;9.752;2023-11-19T16:52:18;8.50;;;3.90;;
16612;SDS011;8419;52.358;9.752;2023-11-19T16:55:07;15.82;;;3.67;;
16612;SDS011;8419;52.358;9.752;2023-11-19T16:57:56;15.80;;;3.92;;
16612;SDS011;8419;52.358;9.752;2023-11-19T17:00:43;17.55;;;3.17;;